Time;durP1;ratioP1;P1;durP2;ratioP2;P2;SDS_P1;SDS_P2;PMS_P1;PMS_P2;Temp;Humidity;BMP_temperature;BMP_pressure;BME280_temperature;BME280_humidity;BME280_pressure;Samples;Min_cycle;Max_cycle;Signal;HPM_P1;HPM_P2
2022/09/30 00:00:23;;;;;;;6.80;0.55;;;;;;;7.29;100.00;99233.44;7396905;19;20360;-92
2022/09/30 00:02:49;;;;;;;1.83;0.98;;;;;;;7.15;100.00;99231.31;7394688;19;20023;-92
2022/09/30 00:05:15;;;;;;;1.55;1.00;;;;;;;7.08;100.00;99231.66;7397541;19;20038;-93
2022/09/30 00:07:41;;;;;;;1.13;1.02;;;;;;;7.06;100.00;99227.84;7395288;19;20073;-92
2022/09/30 00:10:08;;;;;;;1.17;1.10;;;;;;;7.02;100.00;99221.69;7396797;19;20018;-92
2022/09/30 00:12:34;;;;;;;1.80;0.77;;;;;;;6.91;100.00;99224.19;7394384;19;20473;-92
2022/09/30 00:15:01;;;;;;;0.85;0.85;;;;;;;7.01;100.00;99220.94;7395642;19;20025;-92
2022/09/30 00:17:27;;;;;;;0.60;0.55;;;;;;;6.92;100.00;99229.25;7395095;19;20034;-92
2022/09/30 00:19:53;;;;;;;1.85;0.80;;;;;;;6.85;100.00;99232.34;7396194;19;20025;-92
2022/09/30 00:22:19;;;;;;;1.17;0.30;;;;;;;6.82;100.00;99236.81;7395976;19;20018;-92
2022/09/30 00:24:45;;;;;;;3.20;0.65;;;;;;;6.66;100.00;99225.31;7395925;19;20010;-92
2022/09/30 00:27:16;;;;;;;0.10;0.10;;;;;;;10.17;100.00;99221.91;7395450;19;20017;-92
2022/09/30 00:29:43;;;;;;;;;;;;;;;7.14;100.00;99231.78;7397552;19;20021;-91
2022/09/30 00:32:09;;;;;;;0.35;0.35;;;;;;;7.55;100.00;99240.06;7395352;19;19939;-92
2022/09/30 00:34:35;;;;;;;3.85;0.70;;;;;;;8.51;100.00;99224.91;7393973;19;20007;-91
2022/09/30 00:37:02;;;;;;;2.25;0.47;;;;;;;7.03;100.00;99229.53;7393789;19;20015;-93
2022/09/30 00:39:30;;;;;;;0.50;0.50;;;;;;;6.70;100.00;99225.91;7394564;19;20015;-91
2022/09/30 00:41:59;;;;;;;0.73;0.30;;;;;;;6.58;100.00;99221.34;7391792;19;20019;-91
2022/09/30 00:44:51;;;;;;;1.13;0.55;;;;;;;6.53;100.00;99219.19;7396117;19;20025;-92
2022/09/30 00:47:42;;;;;;;0.30;0.30;;;;;;;6.54;100.00;99215.97;7407262;19;20070;-91
2022/09/30 00:50:26;;;;;;;0.43;0.32;;;;;;;6.58;100.00;99226.88;7401849;19;20025;-90
2022/09/30 00:53:07;;;;;;;0.38;0.38;;;;;;;6.49;100.00;99221.34;7401441;19;20010;-91
2022/09/30 00:55:45;;;;;;;0.52;0.50;;;;;;;6.42;100.00;99221.66;7406334;19;20021;-91
2022/09/30 00:58:20;;;;;;;0.82;0.60;;;;;;;6.39;100.00;99226.13;7403005;19;20480;-92
2022/09/30 01:00:47;;;;;;;0.52;0.30;;;;;;;6.30;100.00;99225.38;7400931;19;20011;-92
2022/09/30 01:03:13;;;;;;;0.68;0.68;;;;;;;6.29;100.00;99226.59;7398948;19;20014;-91
2022/09/30 01:05:40;;;;;;;0.52;0.52;;;;;;;6.14;100.00;99229.22;7406009;19;20018;-92
2022/09/30 01:08:07;;;;;;;0.50;0.50;;;;;;;6.20;100.00;99230.13;7401875;19;20033;-91
2022/09/30 01:10:34;;;;;;;0.40;0.40;;;;;;;6.19;100.00;99233.34;7400265;19;20010;-92
2022/09/30 01:13:00;;;;;;;5.05;0.60;;;;;;;6.15;100.00;99232.75;7399093;19;20057;-92
2022/09/30 01:16:05;;;;;;;2.40;0.43;;;;;;;6.15;100.00;99238.28;7399443;19;20014;-92
2022/09/30 01:18:44;;;;;;;0.47;0.47;;;;;;;6.11;100.00;99244.72;7394554;19;20462;-91
2022/09/30 01:21:45;;;;;;;1.00;0.50;;;;;;;6.15;100.00;99241.03;7401761;19;20034;-92
2022/09/30 01:24:39;;;;;;;1.15;0.80;;;;;;;6.07;100.00;99246.88;7400997;19;20035;-92
2022/09/30 01:27:09;;;;;;;0.70;0.70;;;;;;;5.88;100.00;99237.03;7401827;19;20113;-91
2022/09/30 01:30:13;;;;;;;1.25;0.57;;;;;;;5.66;100.00;99247.38;7401666;19;20023;-92
2022/09/30 01:32:48;;;;;;;0.30;0.30;;;;;;;5.63;100.00;99251.06;7399368;19;20014;-92
2022/09/30 01:35:43;;;;;;;2.05;0.57;;;;;;;5.71;100.00;99246.03;7403918;19;20506;-92
2022/09/30 01:38:22;;;;;;;0.85;0.85;;;;;;;5.75;100.00;99252.94;7397651;19;20018;-92
2022/09/30 01:41:00;;;;;;;0.35;0.30;;;;;;;5.75;100.00;99255.69;7402042;19;20031;-92
2022/09/30 01:43:45;;;;;;;1.58;1.05;;;;;;;5.66;100.00;99247.38;7398181;19;20082;-92
2022/09/30 01:46:30;;;;;;;1.58;0.40;;;;;;;5.72;100.00;99251.06;7405305;19;20014;-92
2022/09/30 01:49:11;;;;;;;0.50;0.50;;;;;;;5.78;100.00;99249.25;7400464;19;20010;-92
2022/09/30 01:52:05;;;;;;;0.28;0.28;;;;;;;5.78;100.00;99249.25;7398649;19;20015;-91
2022/09/30 01:54:53;;;;;;;1.13;0.98;;;;;;;5.78;100.00;99246.47;7398266;19;20018;-91
2022/09/30 01:57:25;;;;;;;0.55;0.40;;;;;;;5.85;100.00;99243.47;7395616;19;20482;-92
2022/09/30 02:00:06;;;;;;;0.65;0.65;;;;;;;9.46;100.00;99228.03;7399086;19;20623;-92
2022/09/30 02:02:52;;;;;;;0.40;0.40;;;;;;;12.00;100.00;99224.19;7396967;19;20014;-92
2022/09/30 02:05:25;;;;;;;0.88;0.85;;;;;;;12.05;100.00;99220.69;7403199;19;20015;-92
2022/09/30 02:07:59;;;;;;;0.73;0.32;;;;;;;11.94;100.00;99219.84;7400643;19;20011;-91
2022/09/30 02:10:31;;;;;;;0.75;0.57;;;;;;;12.34;100.00;99210.38;7399793;19;20022;-92
2022/09/30 02:13:17;;;;;;;0.60;0.50;;;;;;;12.62;100.00;99216.78;7396346;19;20014;-92
2022/09/30 02:15:51;;;;;;;6.65;0.40;;;;;;;12.16;100.00;99215.13;7403793;19;20011;-92
2022/09/30 02:18:23;;;;;;;5.38;0.82;;;;;;;12.11;100.00;99201.91;7400399;19;20011;-92
2022/09/30 02:20:55;;;;;;;0.52;0.30;;;;;;;12.33;100.00;99200.47;7399681;19;20017;-91
2022/09/30 02:23:26;;;;;;;1.13;0.68;;;;;;;12.10;100.00;99196.84;7398550;19;20077;-91
2022/09/30 02:26:07;;;;;;;0.35;0.35;;;;;;;12.23;100.00;99202.72;7403313;19;20054;-90
2022/09/30 02:28:41;;;;;;;0.20;0.20;;;;;;;12.23;100.00;99190.78;7400120;19;20014;-91
2022/09/30 02:31:10;;;;;;;5.47;0.82;;;;;;;12.19;100.00;99185.47;7397416;19;20469;-92
2022/09/30 02:33:53;;;;;;;1.05;1.02;;;;;;;12.34;100.00;99188.81;7396512;19;20019;-92
2022/09/30 02:36:53;;;;;;;3.08;0.70;;;;;;;12.21;100.00;99179.38;7403198;19;20018;-92
2022/09/30 02:39:28;;;;;;;0.40;0.40;;;;;;;12.14;100.00;99178.59;7398436;19;20021;-91
2022/09/30 02:42:01;;;;;;;0.50;0.40;;;;;;;12.13;100.00;99177.06;7398786;19;20353;-92
2022/09/30 02:44:28;;;;;;;0.50;0.50;;;;;;;11.99;100.00;99177.25;7399971;19;20022;-91
2022/09/30 02:47:33;;;;;;;0.55;0.38;;;;;;;12.12;100.00;99181.13;7401449;19;20014;-91
2022/09/30 02:50:10;;;;;;;1.33;1.23;;;;;;;12.35;100.00;99181.16;7397084;19;20027;-90
2022/09/30 02:52:42;;;;;;;0.35;0.28;;;;;;;12.44;100.00;99166.97;7396541;19;20018;-91
2022/09/30 02:55:22;;;;;;;0.47;0.47;;;;;;;12.53;100.00;99163.97;7401301;19;20033;-92
2022/09/30 02:58:04;;;;;;;4.15;1.85;;;;;;;11.68;100.00;99158.63;7398901;19;20020;-92
2022/09/30 03:00:30;;;;;;;3.15;2.85;;;;;;;12.12;100.00;99163.63;7399809;19;20039;-91
2022/09/30 03:03:02;;;;;;;1.65;1.40;;;;;;;12.23;100.00;99162.88;7398799;19;20469;-91
2022/09/30 03:05:29;;;;;;;1.05;0.88;;;;;;;12.19;100.00;99160.34;7400747;19;20334;-91
2022/09/30 03:07:55;;;;;;;1.38;1.23;;;;;;;12.18;100.00;99167.19;7395065;19;20366;-91
2022/09/30 03:10:22;;;;;;;0.20;0.20;;;;;;;12.02;100.00;99160.28;7394265;19;20614;-91
2022/09/30 03:13:06;;;;;;;0.47;0.47;;;;;;;12.46;100.00;99164.44;7397521;19;20339;-91
2022/09/30 03:15:53;;;;;;;0.63;0.57;;;;;;;12.38;100.00;99157.84;7400170;19;20111;-91
2022/09/30 03:18:29;;;;;;;0.40;0.40;;;;;;;12.48;100.00;99157.09;7398108;19;20046;-91
2022/09/30 03:21:13;;;;;;;1.27;0.70;;;;;;;12.45;100.00;99155.28;7398222;19;20023;-91
2022/09/30 03:24:15;;;;;;;1.17;0.60;;;;;;;12.47;100.00;99149.22;7396379;19;20019;-91
2022/09/30 03:26:41;;;;;;;0.30;0.30;;;;;;;12.30;100.00;99145.66;7394883;19;20021;-91
2022/09/30 03:29:15;;;;;;;13.70;0.70;;;;;;;12.30;100.00;99140.06;7396827;19;20019;-91
2022/09/30 03:32:12;;;;;;;0.40;0.40;;;;;;;12.16;100.00;99136.22;7396883;19;20006;-91
2022/09/30 03:35:02;;;;;;;0.35;0.35;;;;;;;12.15;100.00;99123.50;7395516;19;20654;-91
2022/09/30 03:38:15;;;;;;;1.13;0.50;;;;;;;11.93;100.00;99124.22;7395117;19;20010;-91
2022/09/30 03:40:56;;;;;;;1.05;0.80;;;;;;;11.88;100.00;99127.00;7393632;19;20408;-92
2022/09/30 03:43:36;;;;;;;0.22;0.22;;;;;;;12.01;100.00;99125.28;7393602;19;20015;-91
2022/09/30 03:46:17;;;;;;;0.47;0.47;;;;;;;12.04;100.00;99124.25;7401863;19;20030;-91
2022/09/30 03:48:47;;;;;;;1.95;0.57;;;;;;;12.04;100.00;99118.66;7396461;19;20018;-91
2022/09/30 03:51:14;;;;;;;1.50;0.82;;;;;;;12.14;100.00;99122.00;7395222;19;20010;-91
2022/09/30 03:53:41;;;;;;;1.42;0.57;;;;;;;12.09;100.00;99120.72;7394124;19;20011;-91
2022/09/30 03:56:08;;;;;;;1.23;0.93;;;;;;;12.10;100.00;99115.91;7399789;19;20568;-90
2022/09/30 03:58:38;;;;;;;0.32;0.32;;;;;;;12.19;100.00;99112.88;7396231;19;20019;-91
2022/09/30 04:01:04;;;;;;;0.13;0.13;;;;;;;12.22;100.00;99111.09;7395754;19;20066;-91
2022/09/30 04:03:31;;;;;;;0.35;0.35;;;;;;;12.29;100.00;99099.44;7394929;19;20025;-91
2022/09/30 04:05:57;;;;;;;3.60;0.88;;;;;;;12.17;100.00;99105.00;7399652;19;20006;-91
2022/09/30 04:08:23;;;;;;;0.65;0.60;;;;;;;12.29;100.00;99100.22;7397342;19;20041;-91
2022/09/30 04:10:49;;;;;;;1.90;1.02;;;;;;;12.29;100.00;99093.84;7397016;19;20015;-91
2022/09/30 04:13:15;;;;;;;0.32;0.32;;;;;;;12.29;100.00;99096.66;7394644;19;20014;-91
2022/09/30 04:15:41;;;;;;;1.38;0.40;;;;;;;12.43;100.00;99096.41;7398281;19;20021;-91
2022/09/30 04:18:07;;;;;;;10.48;0.68;;;;;;;12.41;100.00;99089.81;7394691;19;20093;-90
2022/09/30 04:20:34;;;;;;;2.35;0.88;;;;;;;12.63;100.00;99089.81;7395563;19;20014;-90
2022/09/30 04:23:01;;;;;;;4.60;1.20;;;;;;;12.80;100.00;99087.78;7394986;19;20011;-91
2022/09/30 04:25:27;;;;;;;0.40;0.40;;;;;;;12.88;100.00;99083.22;7397862;19;20018;-91
2022/09/30 04:27:54;;;;;;;0.10;0.10;;;;;;;12.83;100.00;99070.75;7391658;19;20030;-90
2022/09/30 04:30:20;;;;;;;1.23;0.65;;;;;;;12.87;100.00;99071.25;7389912;19;20503;-91
2022/09/30 04:32:47;;;;;;;0.40;0.40;;;;;;;13.24;100.00;99065.38;7393766;19;20030;-90
2022/09/30 04:35:13;;;;;;;3.35;0.32;;;;;;;13.10;100.00;99065.66;7396477;19;20034;-90
2022/09/30 04:37:44;;;;;;;0.20;0.20;;;;;;;12.95;100.00;99058.28;7394849;19;20450;-91
2022/09/30 04:40:11;;;;;;;0.40;0.40;;;;;;;12.92;100.00;99061.34;7397242;19;20022;-91
2022/09/30 04:42:39;;;;;;;2.40;0.93;;;;;;;13.11;100.00;99056.75;7394218;19;20011;-91
2022/09/30 04:45:06;;;;;;;0.38;0.30;;;;;;;13.03;100.00;99052.94;7396682;19;20384;-90
2022/09/30 04:47:33;;;;;;;0.38;0.38;;;;;;;12.82;100.00;99051.72;7395130;19;20034;-91
2022/09/30 04:49:59;;;;;;;2.83;0.85;;;;;;;13.09;100.00;99053.72;7396091;19;20011;-90
2022/09/30 04:52:25;;;;;;;0.50;0.50;;;;;;;13.13;100.00;99048.63;7394364;19;20025;-90
2022/09/30 04:54:52;;;;;;;2.15;0.73;;;;;;;13.29;100.00;99033.06;7393604;19;20027;-90
2022/09/30 04:57:19;;;;;;;1.75;0.35;;;;;;;13.40;100.00;99039.41;7394240;19;20019;-90
2022/09/30 04:59:45;;;;;;;1.17;0.68;;;;;;;13.44;100.00;99030.72;7394754;19;20011;-90
2022/09/30 05:02:12;;;;;;;0.40;0.40;;;;;;;13.46;100.00;99031.72;7393032;19;20026;-90
2022/09/30 05:04:38;;;;;;;8.85;1.08;;;;;;;13.51;100.00;99027.38;7396420;19;20018;-90
2022/09/30 05:07:07;;;;;;;1.08;0.47;;;;;;;13.61;100.00;99018.19;7395007;19;20010;-91
2022/09/30 05:09:34;;;;;;;0.22;0.22;;;;;;;13.75;100.00;99018.38;7394336;19;20453;-90
2022/09/30 05:12:02;;;;;;;0.68;0.47;;;;;;;13.94;100.00;99017.22;7391280;19;20019;-91
2022/09/30 05:14:29;;;;;;;0.30;0.30;;;;;;;13.93;100.00;99006.53;7393904;19;20021;-91
2022/09/30 05:16:55;;;;;;;1.42;0.50;;;;;;;13.77;100.00;98993.41;7396684;19;20011;-91
2022/09/30 05:19:21;;;;;;;1.05;0.85;;;;;;;13.61;100.00;98995.03;7392517;19;20476;-92
2022/09/30 05:21:47;;;;;;;1.95;0.85;;;;;;;13.59;100.00;98989.19;7391416;19;20034;-91
2022/09/30 05:24:13;;;;;;;1.30;0.57;;;;;;;13.71;100.00;98992.69;7395324;19;20082;-91
2022/09/30 05:26:40;;;;;;;0.40;0.40;;;;;;;13.86;100.00;98988.25;7398406;19;20038;-91
2022/09/30 05:29:06;;;;;;;1.30;0.47;;;;;;;14.01;100.00;98980.25;7394841;19;20017;-91
2022/09/30 05:31:32;;;;;;;4.85;1.00;;;;;;;13.90;100.00;98980.38;7391564;19;20015;-91
2022/09/30 05:33:58;;;;;;;1.75;0.65;;;;;;;13.95;100.00;98973.19;7397488;19;20346;-90
2022/09/30 05:36:25;;;;;;;1.35;0.73;;;;;;;13.93;100.00;98961.75;7403419;19;20014;-91
2022/09/30 05:38:52;;;;;;;1.73;0.68;;;;;;;14.14;100.00;98965.69;7398732;19;20388;-90
2022/09/30 05:41:19;;;;;;;0.65;0.55;;;;;;;14.17;100.00;98947.81;7398234;19;20021;-90
2022/09/30 05:43:46;;;;;;;0.30;0.30;;;;;;;14.23;100.00;98957.69;7398117;19;20042;-91
2022/09/30 05:46:17;;;;;;;0.80;0.75;;;;;;;14.35;100.00;98949.97;7405151;19;20042;-91
2022/09/30 05:48:44;;;;;;;5.75;1.08;;;;;;;14.39;100.00;98947.66;7399529;19;20017;-92
2022/09/30 05:51:10;;;;;;;1.42;0.50;;;;;;;14.40;100.00;98944.31;7400449;19;20074;-90
2022/09/30 05:53:37;;;;;;;1.13;0.77;;;;;;;14.63;100.00;98942.06;7399700;19;20807;-89
2022/09/30 05:56:08;;;;;;;1.88;0.45;;;;;;;14.80;100.00;98937.03;7408844;19;20095;-92
2022/09/30 05:58:36;;;;;;;2.08;0.93;;;;;;;14.32;100.00;98925.81;7410347;19;20365;-91
2022/09/30 06:01:08;;;;;;;0.47;0.47;;;;;;;15.02;100.00;98931.19;7408549;19;20015;-92
2022/09/30 06:03:35;;;;;;;1.42;0.45;;;;;;;15.36;100.00;98931.50;7398492;19;20007;-92
2022/09/30 06:06:01;;;;;;;0.90;0.75;;;;;;;15.65;100.00;98925.00;7406050;19;20019;-92
2022/09/30 06:08:27;;;;;;;1.73;0.93;;;;;;;15.83;100.00;98920.66;7399173;19;20464;-93
2022/09/30 06:10:53;;;;;;;1.38;0.55;;;;;;;15.82;100.00;98916.31;7398414;19;20367;-93
2022/09/30 06:13:20;;;;;;;5.43;1.63;;;;;;;15.97;100.00;98922.19;7396906;19;20026;-92
2022/09/30 06:15:57;;;;;;;1.83;0.43;;;;;;;16.43;100.00;98918.09;7402750;19;20011;-93
2022/09/30 06:18:26;;;;;;;2.15;0.38;;;;;;;16.51;100.00;98907.75;7399320;19;20014;-93
2022/09/30 06:20:55;;;;;;;1.27;0.20;;;;;;;16.80;100.00;98914.34;7399791;19;20035;-93
2022/09/30 06:23:21;;;;;;;4.78;0.95;;;;;;;16.84;100.00;98907.13;7398561;19;20506;-93
2022/09/30 06:25:52;;;;;;;0.40;0.40;;;;;;;17.28;100.00;98905.44;7399191;19;20596;-92
2022/09/30 06:28:19;;;;;;;1.00;0.57;;;;;;;16.99;100.00;98895.31;7399427;19;20018;-92
2022/09/30 06:30:45;;;;;;;9.57;1.08;;;;;;;15.94;100.00;98898.75;7398204;19;20017;-93
2022/09/30 06:33:13;;;;;;;2.70;1.02;;;;;;;12.09;100.00;98894.66;7401701;19;20014;-93
2022/09/30 06:35:41;;;;;;;4.22;0.68;;;;;;;14.15;100.00;98878.34;7401598;19;20018;-93
2022/09/30 06:38:08;;;;;;;2.58;1.00;;;;;;;15.92;100.00;98872.50;7402462;19;20103;-92
2022/09/30 06:40:35;;;;;;;0.47;0.40;;;;;;;16.03;100.00;98877.91;7401760;19;20022;-94
2022/09/30 06:43:01;;;;;;;2.60;0.73;;;;;;;16.67;100.00;98876.50;7400163;19;20019;-93
2022/09/30 06:45:31;;;;;;;2.50;0.88;;;;;;;16.94;100.00;98868.03;7400360;19;20081;-93
2022/09/30 06:48:02;;;;;;;2.92;1.05;;;;;;;15.75;100.00;98874.81;7400300;19;20050;-92
2022/09/30 06:50:29;;;;;;;0.32;0.30;;;;;;;15.17;100.00;98886.63;7400913;19;20019;-92
2022/09/30 06:53:00;;;;;;;1.17;0.70;;;;;;;12.37;100.00;98883.44;7399111;19;20078;-92
2022/09/30 06:55:28;;;;;;;3.50;1.55;;;;;;;11.37;100.00;98879.88;7400611;19;20038;-92
2022/09/30 06:57:54;;;;;;;4.97;1.50;;;;;;;10.82;100.00;98876.97;7395549;19;20063;-92
2022/09/30 07:00:22;;;;;;;1.38;1.02;;;;;;;10.80;100.00;98873.94;7394632;19;20022;-93
2022/09/30 07:02:48;;;;;;;4.40;1.55;;;;;;;10.77;100.00;98870.13;7399307;19;20086;-93
2022/09/30 07:05:16;;;;;;;2.78;1.02;;;;;;;10.46;100.00;98857.06;7401670;19;20021;-94
2022/09/30 07:07:43;;;;;;;1.95;1.20;;;;;;;10.55;100.00;98862.44;7400978;19;20021;-93
2022/09/30 07:10:09;;;;;;;1.88;0.77;;;;;;;10.66;100.00;98851.34;7398881;19;20035;-92
2022/09/30 07:12:36;;;;;;;2.03;0.85;;;;;;;10.55;100.00;98851.31;7398145;19;20006;-92
2022/09/30 07:15:02;;;;;;;4.28;2.15;;;;;;;10.38;100.00;98850.47;7397833;19;20007;-93
2022/09/30 07:17:28;;;;;;;2.10;1.13;;;;;;;10.22;100.00;98842.03;7397966;19;20015;-92
2022/09/30 07:19:54;;;;;;;3.03;0.95;;;;;;;10.16;100.00;98844.78;7395487;19;20078;-93
2022/09/30 07:22:28;;;;;;;4.57;1.80;;;;;;;10.37;100.00;98840.56;7395475;19;20345;-92
2022/09/30 07:25:02;;;;;;;7.22;1.77;;;;;;;10.91;100.00;98848.91;7400224;19;20025;-92
2022/09/30 07:27:31;;;;;;;4.03;1.45;;;;;;;11.00;100.00;98845.91;7398489;19;20006;-92
2022/09/30 07:29:58;;;;;;;6.10;0.77;;;;;;;10.96;100.00;98842.59;7398155;19;20014;-90
2022/09/30 07:32:25;;;;;;;3.65;1.05;;;;;;;11.05;100.00;98839.56;7397353;19;20025;-90
2022/09/30 07:34:51;;;;;;;2.97;1.65;;;;;;;11.08;100.00;98830.19;7396432;19;20461;-91
2022/09/30 07:37:18;;;;;;;3.17;1.13;;;;;;;11.19;100.00;98817.06;7395173;19;20015;-92
2022/09/30 07:39:46;;;;;;;3.30;0.73;;;;;;;11.31;100.00;98813.00;7395606;19;20027;-92
2022/09/30 07:42:20;;;;;;;3.47;1.05;;;;;;;11.46;100.00;98806.44;7395854;19;20018;-92
2022/09/30 07:44:50;;;;;;;7.07;2.10;;;;;;;12.22;100.00;98804.81;7398865;19;20082;-92
2022/09/30 07:47:17;;;;;;;3.70;1.00;;;;;;;14.08;100.00;98805.34;7400133;19;20018;-93
2022/09/30 07:49:44;;;;;;;1.00;0.60;;;;;;;14.60;100.00;98794.59;7397698;19;20362;-91
2022/09/30 07:52:11;;;;;;;2.45;1.48;;;;;;;15.29;100.00;98791.09;7398228;19;20035;-92
2022/09/30 07:54:38;;;;;;;10.20;2.10;;;;;;;15.54;100.00;98784.06;7393804;19;20010;-92
2022/09/30 07:57:05;;;;;;;3.28;1.48;;;;;;;13.25;100.00;98780.94;7391694;19;20015;-92
2022/09/30 07:59:34;;;;;;;3.08;1.05;;;;;;;15.68;100.00;98780.03;7395566;19;20007;-93
2022/09/30 08:02:01;;;;;;;9.68;1.27;;;;;;;15.71;100.00;98776.13;7393777;19;20346;-92
2022/09/30 08:04:27;;;;;;;4.05;2.10;;;;;;;14.40;100.00;98764.31;7396165;19;20043;-93
2022/09/30 08:06:56;;;;;;;2.92;0.65;;;;;;;15.88;100.00;98751.31;7395675;19;20022;-91
2022/09/30 08:09:25;;;;;;;2.38;0.88;;;;;;;16.28;100.00;98744.41;7395212;19;20407;-91
2022/09/30 08:11:51;;;;;;;5.20;2.28;;;;;;;16.26;100.00;98741.41;7394797;19;20011;-91
2022/09/30 08:14:23;;;;;;;1.05;1.02;;;;;;;16.76;100.00;98731.94;7395522;19;20481;-91
2022/09/30 08:16:50;;;;;;;3.20;1.70;;;;;;;17.39;100.00;98728.59;7397499;19;20022;-91
2022/09/30 08:19:19;;;;;;;4.55;1.98;;;;;;;17.80;100.00;98718.66;7394044;19;20027;-91
2022/09/30 08:21:46;;;;;;;5.10;1.55;;;;;;;18.02;100.00;98732.88;7396001;19;20726;-93
2022/09/30 08:24:13;;;;;;;1.70;1.25;;;;;;;18.05;100.00;98734.59;7397041;19;20039;-92
2022/09/30 08:26:40;;;;;;;3.00;1.83;;;;;;;18.09;100.00;98729.34;7400588;19;20020;-92
2022/09/30 08:29:07;;;;;;;7.68;1.17;;;;;;;18.03;100.00;98728.75;7395291;19;20378;-91
2022/09/30 08:31:33;;;;;;;5.00;2.25;;;;;;;17.99;100.00;98724.78;7395709;19;20015;-90
2022/09/30 08:34:01;;;;;;;3.25;0.93;;;;;;;17.74;100.00;98715.22;7395595;19;20028;-92
2022/09/30 08:36:28;;;;;;;5.05;1.63;;;;;;;17.70;100.00;98704.31;7396434;19;20011;-92
2022/09/30 08:38:55;;;;;;;5.82;1.48;;;;;;;17.64;100.00;98698.06;7392896;19;20028;-91
2022/09/30 08:41:37;;;;;;;4.32;1.05;;;;;;;17.80;100.00;98698.94;7394350;19;20022;-92
2022/09/30 08:44:20;;;;;;;3.83;1.33;;;;;;;17.85;100.00;98695.97;7393786;19;20010;-91
2022/09/30 08:47:01;;;;;;;4.80;1.67;;;;;;;17.78;100.00;98698.75;7396438;19;20055;-91
2022/09/30 08:50:00;;;;;;;10.90;1.27;;;;;;;17.74;100.00;98696.25;7392657;19;20010;-92
2022/09/30 08:52:32;;;;;;;8.95;1.85;;;;;;;17.61;100.00;98690.72;7393368;19;20025;-93
2022/09/30 08:54:59;;;;;;;2.50;1.55;;;;;;;17.70;100.00;98690.22;7395515;19;20018;-91
2022/09/30 08:57:30;;;;;;;5.28;1.80;;;;;;;18.05;100.00;98695.16;7393566;19;20155;-92
2022/09/30 09:00:00;;;;;;;2.40;1.05;;;;;;;17.53;100.00;98692.72;7396046;19;20010;-91
2022/09/30 09:02:32;;;;;;;10.47;1.93;;;;;;;18.08;100.00;98679.94;7393274;19;20028;-92
2022/09/30 09:05:05;;;;;;;3.70;1.88;;;;;;;18.07;100.00;98674.88;7397682;19;20096;-92
2022/09/30 09:07:40;;;;;;;7.13;1.60;;;;;;;18.30;100.00;98660.88;7395881;19;20027;-92
2022/09/30 09:10:31;;;;;;;3.05;0.82;;;;;;;18.40;100.00;98653.41;7400851;19;20018;-91
2022/09/30 09:13:12;;;;;;;2.67;1.42;;;;;;;18.50;100.00;98643.88;7401161;19;20034;-93
2022/09/30 09:16:01;;;;;;;4.95;1.92;;;;;;;18.66;100.00;98639.03;7403624;19;20075;-93
2022/09/30 09:18:34;;;;;;;2.75;1.10;;;;;;;18.71;100.00;98624.00;7402725;19;20465;-91
2022/09/30 09:21:09;;;;;;;4.65;2.25;;;;;;;18.79;100.00;98613.50;7403526;19;20048;-94
2022/09/30 09:23:35;;;;;;;3.00;0.90;;;;;;;18.76;100.00;98608.97;7400351;19;20022;-94
2022/09/30 09:26:03;;;;;;;8.57;2.47;;;;;;;18.81;100.00;98599.56;7405421;19;20477;-94
2022/09/30 09:28:50;;;;;;;12.82;2.95;;;;;;;18.72;100.00;98595.25;7401068;19;20010;-91
2022/09/30 09:31:19;;;;;;;9.30;1.83;;;;;;;18.83;100.00;98586.41;7399493;19;20136;-91
2022/09/30 09:33:46;;;;;;;3.25;1.42;;;;;;;18.84;100.00;98590.00;7398800;19;20022;-91
2022/09/30 09:36:34;;;;;;;2.70;1.67;;;;;;;18.48;100.00;98589.34;7406173;19;20019;-91
2022/09/30 09:39:28;;;;;;;3.78;1.42;;;;;;;17.62;100.00;98576.81;7401013;19;20017;-93
2022/09/30 09:42:11;;;;;;;6.18;2.45;;;;;;;18.65;100.00;98558.56;7400186;19;20072;-92
2022/09/30 09:44:49;;;;;;;7.97;1.40;;;;;;;17.99;100.00;98547.31;7401459;19;20521;-91
2022/09/30 09:47:16;;;;;;;3.85;1.80;;;;;;;14.40;100.00;98543.03;7404860;19;20015;-91
2022/09/30 09:49:43;;;;;;;3.90;1.40;;;;;;;14.24;100.00;98530.75;7401123;19;20022;-91
2022/09/30 09:52:12;;;;;;;3.05;0.93;;;;;;;17.97;100.00;98521.75;7399090;19;20406;-92
2022/09/30 09:54:40;;;;;;;1.63;1.17;;;;;;;18.62;100.00;98523.78;7398934;19;20017;-92
2022/09/30 09:57:11;;;;;;;5.72;1.70;;;;;;;18.17;100.00;98515.97;7397582;19;20018;-92
2022/09/30 09:59:54;;;;;;;4.20;1.80;;;;;;;14.23;100.00;98508.88;7396617;19;20010;-91
2022/09/30 10:02:23;;;;;;;2.58;1.27;;;;;;;18.26;100.00;98499.84;7397627;19;20484;-91
2022/09/30 10:04:58;;;;;;;2.50;1.27;;;;;;;19.02;100.00;98495.75;7400594;19;20019;-91
2022/09/30 10:07:27;;;;;;;1.98;1.20;;;;;;;19.28;100.00;98483.25;7399146;19;20011;-92
2022/09/30 10:10:18;;;;;;;6.18;1.83;;;;;;;19.50;100.00;98497.34;7399151;19;20029;-91
2022/09/30 10:12:46;;;;;;;3.40;1.38;;;;;;;19.58;100.00;98489.59;7391992;19;20018;-91
2022/09/30 10:15:23;;;;;;;6.18;1.20;;;;;;;19.47;100.00;98478.72;7391954;19;20018;-90
2022/09/30 10:17:57;;;;;;;4.40;1.88;;;;;;;19.55;100.00;98476.63;7398812;19;20018;-91
2022/09/30 10:20:35;;;;;;;2.65;1.48;;;;;;;19.89;100.00;98478.91;7398200;19;20015;-90
2022/09/30 10:23:26;;;;;;;5.72;1.75;;;;;;;20.20;100.00;98466.16;7397126;19;20109;-91
2022/09/30 10:26:02;;;;;;;;;;;;;;;20.26;100.00;98469.50;7403508;19;20019;-93
2022/09/30 10:28:32;;;;;;;2.80;1.08;;;;;;;20.47;100.00;98463.47;7397757;19;19923;-92
2022/09/30 10:31:04;;;;;;;6.00;1.70;;;;;;;20.55;100.00;98454.94;7398245;19;20018;-91
2022/09/30 10:33:40;;;;;;;9.15;2.13;;;;;;;20.50;100.00;98456.69;7396867;19;20015;-92
2022/09/30 10:36:18;;;;;;;2.20;1.05;;;;;;;20.75;100.00;98442.50;7401743;19;20010;-92
2022/09/30 10:38:54;;;;;;;3.38;1.25;;;;;;;21.06;100.00;98449.41;7399002;19;20038;-91
2022/09/30 10:41:23;;;;;;;3.10;1.92;;;;;;;21.01;100.00;98448.28;7395936;19;20045;-93
2022/09/30 10:43:53;;;;;;;5.05;1.35;;;;;;;21.17;100.00;98434.75;7396425;19;20766;-92
2022/09/30 10:46:37;;;;;;;3.75;1.40;;;;;;;21.05;100.00;98431.66;7403198;19;20007;-91
2022/09/30 10:49:10;;;;;;;4.70;1.40;;;;;;;21.22;100.00;98430.16;7399195;19;20006;-91
2022/09/30 10:51:37;;;;;;;2.00;0.95;;;;;;;21.33;100.00;98410.56;7397628;19;20038;-90
2022/09/30 10:54:05;;;;;;;5.15;1.55;;;;;;;21.43;100.00;98397.25;7396371;19;20555;-91
2022/09/30 10:56:39;;;;;;;1.60;1.20;;;;;;;21.26;100.00;98393.69;7401585;19;20015;-92
2022/09/30 10:59:24;;;;;;;3.33;1.15;;;;;;;21.12;100.00;98373.44;7397755;19;20500;-93
2022/09/30 11:01:56;;;;;;;4.53;1.55;;;;;;;21.23;100.00;98369.34;7396966;19;20349;-94
2022/09/30 11:04:34;;;;;;;5.53;1.98;;;;;;;21.37;100.00;98370.50;7401937;19;20017;-94
2022/09/30 11:07:31;;;;;;;2.58;1.20;;;;;;;20.97;100.00;98362.28;7403772;19;20044;-94
2022/09/30 11:10:19;;;;;;;8.50;1.85;;;;;;;21.00;100.00;98353.38;7409718;19;20014;-96
2022/09/30 11:13:06;;;;;;;3.55;1.30;;;;;;;20.92;100.00;98363.31;7405179;19;20010;-57
2022/09/30 11:15:47;;;;;;;7.97;1.15;;;;;;;20.90;100.00;98358.19;7392704;19;20455;-57
2022/09/30 11:18:22;;;;;;;;;;;;;;;20.93;100.00;98354.22;7391352;19;20015;-57
2022/09/30 11:21:02;;;;;;;0.63;0.55;;;;;;;20.71;100.00;98341.06;7387417;19;19924;-56
2022/09/30 11:23:34;;;;;;;3.13;1.77;;;;;;;20.49;100.00;98341.31;7390009;19;20015;-56
2022/09/30 11:26:17;;;;;;;1.95;1.00;;;;;;;20.58;100.00;98344.22;7392734;19;20388;-56
2022/09/30 11:28:53;;;;;;;1.08;1.02;;;;;;;20.46;100.00;98326.25;7388392;19;20454;-56
2022/09/30 11:31:30;;;;;;;2.97;1.50;;;;;;;20.11;100.00;98335.97;7387435;19;20467;-57
2022/09/30 11:34:24;;;;;;;2.47;1.23;;;;;;;20.07;100.00;98321.47;7394277;19;20014;-57
2022/09/30 11:36:56;;;;;;;2.78;0.98;;;;;;;20.15;100.00;98313.69;7394175;19;20128;-57
2022/09/30 11:39:38;;;;;;;6.60;1.38;;;;;;;19.92;100.00;98308.22;7392117;19;20428;-58
2022/09/30 11:42:18;;;;;;;9.40;1.45;;;;;;;20.15;100.00;98296.72;7392010;19;20014;-59
2022/09/30 11:44:46;;;;;;;1.20;0.90;;;;;;;20.11;100.00;98290.72;7393132;19;20002;-58
2022/09/30 11:47:47;;;;;;;1.77;1.00;;;;;;;19.97;100.00;98287.44;7396266;19;20014;-58
2022/09/30 11:50:16;;;;;;;;;;;;;;;19.74;100.00;98258.66;7389692;19;20455;-57
2022/09/30 11:53:01;;;;;;;4.97;0.95;;;;;;;19.82;100.00;98258.56;7391941;19;20259;-58